sensor_id;sensor_type;location;lat;lon;timestamp;P1;durP1;ratioP1;P2;durP2;ratioP2
5379;SDS011;2713;42.680;23.310;2023-03-03T00:01:13;3.03;;;2.83;;
5379;SDS011;2713;42.680;23.310;2023-03-03T00:03:40;4.03;;;3.63;;
5379;SDS011;2713;42.680;23.310;2023-03-03T00:06:08;3.83;;;3.60;;
5379;SDS011;2713;42.680;23.310;2023-03-03T00:08:35;3.53;;;3.30;;
5379;SDS011;2713;42.680;23.310;2023-03-03T00:11:02;4.40;;;4.05;;
5379;SDS011;2713;42.680;23.310;2023-03-03T00:13:31;4.07;;;3.67;;
5379;SDS011;2713;42.680;23.310;2023-03-03T00:16:09;3.92;;;3.63;;
5379;SDS011;2713;42.680;23.310;2023-03-03T00:18:46;4.90;;;3.17;;
5379;SDS011;2713;42.680;23.310;2023-03-03T00:21:24;4.43;;;3.72;;
5379;SDS011;2713;42.680;23.310;2023-03-03T00:23:54;4.15;;;3.70;;
5379;SDS011;2713;42.680;23.310;2023-03-03T00:26:36;3.97;;;3.50;;
5379;SDS011;2713;42.680;23.310;2023-03-03T00:29:19;4.45;;;4.05;;
5379;SDS011;2713;42.680;23.310;2023-03-03T00:31:54;4.10;;;3.78;;
5379;SDS011;2713;42.680;23.310;2023-03-03T00:34:25;4.40;;;4.03;;
5379;SDS011;2713;42.680;23.310;2023-03-03T00:36:55;4.50;;;4.15;;
5379;SDS011;2713;42.680;23.310;2023-03-03T00:39:25;4.70;;;4.30;;
5379;SDS011;2713;42.680;23.310;2023-03-03T00:41:55;4.80;;;4.40;;
5379;SDS011;2713;42.680;23.310;2023-03-03T00:44:30;4.75;;;4.35;;
5379;SDS011;2713;42.680;23.310;2023-03-03T00:47:22;4.82;;;4.43;;
5379;SDS011;2713;42.680;23.310;2023-03-03T00:49:51;5.60;;;4.38;;
5379;SDS011;2713;42.680;23.310;2023-03-03T00:52:23;5.20;;;4.70;;
5379;SDS011;2713;42.680;23.310;2023-03-03T00:54:53;4.40;;;4.00;;
5379;SDS011;2713;42.680;23.310;2023-03-03T00:57:20;5.13;;;4.50;;
5379;SDS011;2713;42.680;23.310;2023-03-03T00:59:49;5.55;;;5.05;;
5379;SDS011;2713;42.680;23.310;2023-03-03T01:02:16;5.05;;;4.55;;
5379;SDS011;2713;42.680;23.310;2023-03-03T01:04:45;5.60;;;5.05;;
5379;SDS011;2713;42.680;23.310;2023-03-03T01:07:15;5.03;;;4.53;;
5379;SDS011;2713;42.680;23.310;2023-03-03T01:09:42;5.07;;;4.57;;
5379;SDS011;2713;42.680;23.310;2023-03-03T01:12:09;7.78;;;5.38;;
5379;SDS011;2713;42.680;23.310;2023-03-03T01:14:37;5.40;;;4.90;;
5379;SDS011;2713;42.680;23.310;2023-03-03T01:17:04;5.30;;;4.80;;
5379;SDS011;2713;42.680;23.310;2023-03-03T01:19:31;6.97;;;5.63;;
5379;SDS011;2713;42.680;23.310;2023-03-03T01:21:59;4.88;;;4.38;;
5379;SDS011;2713;42.680;23.310;2023-03-03T01:24:26;6.05;;;5.22;;
5379;SDS011;2713;42.680;23.310;2023-03-03T01:26:53;5.20;;;4.70;;
5379;SDS011;2713;42.680;23.310;2023-03-03T01:29:21;5.18;;;4.65;;
5379;SDS011;2713;42.680;23.310;2023-03-03T01:31:48;8.82;;;5.35;;
5379;SDS011;2713;42.680;23.310;2023-03-03T01:34:15;6.03;;;5.00;;
5379;SDS011;2713;42.680;23.310;2023-03-03T01:36:42;5.45;;;4.80;;
5379;SDS011;2713;42.680;23.310;2023-03-03T01:39:10;5.13;;;4.60;;
5379;SDS011;2713;42.680;23.310;2023-03-03T01:41:37;5.80;;;4.75;;
5379;SDS011;2713;42.680;23.310;2023-03-03T01:44:06;5.20;;;4.72;;
5379;SDS011;2713;42.680;23.310;2023-03-03T01:46:43;5.47;;;4.97;;
5379;SDS011;2713;42.680;23.310;2023-03-03T01:49:17;5.75;;;4.88;;
5379;SDS011;2713;42.680;23.310;2023-03-03T01:51:48;5.03;;;4.53;;
5379;SDS011;2713;42.680;23.310;2023-03-03T01:54:20;7.47;;;4.88;;
5379;SDS011;2713;42.680;23.310;2023-03-03T01:56:52;4.55;;;4.15;;
5379;SDS011;2713;42.680;23.310;2023-03-03T01:59:24;5.53;;;4.57;;
5379;SDS011;2713;42.680;23.310;2023-03-03T02:01:54;5.22;;;4.65;;
5379;SDS011;2713;42.680;23.310;2023-03-03T02:04:21;5.60;;;4.80;;
5379;SDS011;2713;42.680;23.310;2023-03-03T02:06:49;4.82;;;4.35;;
5379;SDS011;2713;42.680;23.310;2023-03-03T02:09:23;5.28;;;4.43;;
5379;SDS011;2713;42.680;23.310;2023-03-03T02:11:56;5.88;;;4.82;;
5379;SDS011;2713;42.680;23.310;2023-03-03T02:14:26;4.90;;;4.40;;
5379;SDS011;2713;42.680;23.310;2023-03-03T02:16:53;4.75;;;4.32;;
5379;SDS011;2713;42.680;23.310;2023-03-03T02:19:21;5.18;;;4.68;;
5379;SDS011;2713;42.680;23.310;2023-03-03T02:21:57;4.57;;;3.70;;
5379;SDS011;2713;42.680;23.310;2023-03-03T02:24:29;6.78;;;5.00;;
5379;SDS011;2713;42.680;23.310;2023-03-03T02:27:01;4.45;;;4.10;;
5379;SDS011;2713;42.680;23.310;2023-03-03T02:29:29;4.43;;;3.92;;
5379;SDS011;2713;42.680;23.310;2023-03-03T02:34:47;3.53;;;3.22;;
5379;SDS011;2713;42.680;23.310;2023-03-03T02:37:15;4.35;;;3.95;;
5379;SDS011;2713;42.680;23.310;2023-03-03T02:39:43;4.40;;;4.00;;
5379;SDS011;2713;42.680;23.310;2023-03-03T02:42:13;5.15;;;3.90;;
5379;SDS011;2713;42.680;23.310;2023-03-03T02:44:49;3.95;;;3.65;;
5379;SDS011;2713;42.680;23.310;2023-03-03T02:47:17;4.25;;;3.85;;
5379;SDS011;2713;42.680;23.310;2023-03-03T02:49:45;4.78;;;4.38;;
5379;SDS011;2713;42.680;23.310;2023-03-03T02:52:11;4.50;;;4.10;;
5379;SDS011;2713;42.680;23.310;2023-03-03T02:54:44;4.70;;;4.30;;
5379;SDS011;2713;42.680;23.310;2023-03-03T02:57:13;4.55;;;4.15;;
5379;SDS011;2713;42.680;23.310;2023-03-03T02:59:39;5.07;;;4.55;;
5379;SDS011;2713;42.680;23.310;2023-03-03T03:02:12;5.13;;;4.63;;
5379;SDS011;2713;42.680;23.310;2023-03-03T03:04:39;4.60;;;4.20;;
5379;SDS011;2713;42.680;23.310;2023-03-03T03:07:08;4.90;;;4.50;;
5379;SDS011;2713;42.680;23.310;2023-03-03T03:09:36;5.22;;;4.82;;
5379;SDS011;2713;42.680;23.310;2023-03-03T03:12:03;6.47;;;4.70;;
5379;SDS011;2713;42.680;23.310;2023-03-03T03:14:34;6.85;;;5.10;;
5379;SDS011;2713;42.680;23.310;2023-03-03T03:17:01;4.50;;;4.10;;
5379;SDS011;2713;42.680;23.310;2023-03-03T03:19:29;6.55;;;5.00;;
5379;SDS011;2713;42.680;23.310;2023-03-03T03:21:59;5.15;;;4.65;;
5379;SDS011;2713;42.680;23.310;2023-03-03T03:24:27;5.43;;;4.90;;
5379;SDS011;2713;42.680;23.310;2023-03-03T03:26:59;5.75;;;4.90;;
5379;SDS011;2713;42.680;23.310;2023-03-03T03:29:27;5.40;;;4.90;;
5379;SDS011;2713;42.680;23.310;2023-03-03T03:31:55;5.93;;;5.30;;
5379;SDS011;2713;42.680;23.310;2023-03-03T03:34:22;5.80;;;5.18;;
5379;SDS011;2713;42.680;23.310;2023-03-03T03:36:50;7.32;;;5.70;;
5379;SDS011;2713;42.680;23.310;2023-03-03T03:39:18;6.88;;;5.75;;
5379;SDS011;2713;42.680;23.310;2023-03-03T03:41:47;6.95;;;5.50;;
5379;SDS011;2713;42.680;23.310;2023-03-03T03:44:14;6.25;;;5.68;;
5379;SDS011;2713;42.680;23.310;2023-03-03T03:46:41;6.43;;;5.70;;
5379;SDS011;2713;42.680;23.310;2023-03-03T03:49:10;7.00;;;6.30;;
5379;SDS011;2713;42.680;23.310;2023-03-03T03:51:38;6.47;;;5.85;;
5379;SDS011;2713;42.680;23.310;2023-03-03T03:54:07;6.60;;;5.90;;
5379;SDS011;2713;42.680;23.310;2023-03-03T03:56:35;8.27;;;6.35;;
5379;SDS011;2713;42.680;23.310;2023-03-03T03:59:04;8.00;;;6.57;;
5379;SDS011;2713;42.680;23.310;2023-03-03T04:01:32;8.13;;;6.22;;
5379;SDS011;2713;42.680;23.310;2023-03-03T04:03:59;7.70;;;6.65;;
5379;SDS011;2713;42.680;23.310;2023-03-03T04:06:27;8.98;;;7.55;;
5379;SDS011;2713;42.680;23.310;2023-03-03T04:08:55;8.75;;;6.78;;
5379;SDS011;2713;42.680;23.310;2023-03-03T04:11:22;9.88;;;7.35;;
5379;SDS011;2713;42.680;23.310;2023-03-03T04:13:49;8.18;;;6.68;;
5379;SDS011;2713;42.680;23.310;2023-03-03T04:16:16;11.70;;;8.15;;
5379;SDS011;2713;42.680;23.310;2023-03-03T04:18:44;9.25;;;7.40;;
5379;SDS011;2713;42.680;23.310;2023-03-03T04:21:12;10.18;;;7.60;;
5379;SDS011;2713;42.680;23.310;2023-03-03T04:23:42;10.00;;;7.95;;
5379;SDS011;2713;42.680;23.310;2023-03-03T04:26:09;10.57;;;7.30;;
5379;SDS011;2713;42.680;23.310;2023-03-03T04:28:36;10.77;;;7.55;;
5379;SDS011;2713;42.680;23.310;2023-03-03T04:31:03;10.13;;;7.75;;
5379;SDS011;2713;42.680;23.310;2023-03-03T04:33:31;10.55;;;7.60;;
5379;SDS011;2713;42.680;23.310;2023-03-03T04:36:00;8.18;;;6.93;;
5379;SDS011;2713;42.680;23.310;2023-03-03T04:38:27;9.02;;;7.28;;
5379;SDS011;2713;42.680;23.310;2023-03-03T04:40:56;8.73;;;7.50;;
5379;SDS011;2713;42.680;23.310;2023-03-03T04:43:25;10.88;;;7.38;;
5379;SDS011;2713;42.680;23.310;2023-03-03T04:45:52;8.82;;;7.53;;
5379;SDS011;2713;42.680;23.310;2023-03-03T04:48:20;8.63;;;6.90;;
5379;SDS011;2713;42.680;23.310;2023-03-03T04:50:47;9.02;;;7.32;;
5379;SDS011;2713;42.680;23.310;2023-03-03T04:53:14;10.10;;;7.53;;
5379;SDS011;2713;42.680;23.310;2023-03-03T04:55:41;8.75;;;6.88;;
5379;SDS011;2713;42.680;23.310;2023-03-03T04:58:10;9.10;;;6.93;;
5379;SDS011;2713;42.680;23.310;2023-03-03T05:00:37;10.23;;;7.35;;
5379;SDS011;2713;42.680;23.310;2023-03-03T05:03:06;9.88;;;7.57;;
5379;SDS011;2713;42.680;23.310;2023-03-03T05:05:33;8.50;;;7.47;;
5379;SDS011;2713;42.680;23.310;2023-03-03T05:08:00;9.75;;;7.43;;
5379;SDS011;2713;42.680;23.310;2023-03-03T05:10:27;8.77;;;6.88;;
5379;SDS011;2713;42.680;23.310;2023-03-03T05:12:54;10.80;;;7.93;;
5379;SDS011;2713;42.680;23.310;2023-03-03T05:15:22;14.30;;;8.38;;
5379;SDS011;2713;42.680;23.310;2023-03-03T05:17:49;10.05;;;7.93;;
5379;SDS011;2713;42.680;23.310;2023-03-03T05:20:17;10.15;;;8.07;;
5379;SDS011;2713;42.680;23.310;2023-03-03T05:22:44;12.88;;;8.60;;
5379;SDS011;2713;42.680;23.310;2023-03-03T05:25:11;10.40;;;7.80;;
5379;SDS011;2713;42.680;23.310;2023-03-03T05:27:38;10.48;;;8.20;;
5379;SDS011;2713;42.680;23.310;2023-03-03T05:30:05;11.25;;;8.15;;
5379;SDS011;2713;42.680;23.310;2023-03-03T05:32:34;8.55;;;7.18;;
5379;SDS011;2713;42.680;23.310;2023-03-03T05:35:01;11.45;;;8.70;;
5379;SDS011;2713;42.680;23.310;2023-03-03T05:37:28;12.05;;;8.68;;
5379;SDS011;2713;42.680;23.310;2023-03-03T05:39:55;11.00;;;8.40;;
5379;SDS011;2713;42.680;23.310;2023-03-03T05:42:22;11.75;;;8.98;;
5379;SDS011;2713;42.680;23.310;2023-03-03T05:44:49;13.00;;;9.70;;
5379;SDS011;2713;42.680;23.310;2023-03-03T05:47:15;9.63;;;8.18;;
5379;SDS011;2713;42.680;23.310;2023-03-03T05:49:44;12.13;;;8.70;;
5379;SDS011;2713;42.680;23.310;2023-03-03T05:52:10;13.70;;;9.50;;
5379;SDS011;2713;42.680;23.310;2023-03-03T05:54:38;12.43;;;9.68;;
5379;SDS011;2713;42.680;23.310;2023-03-03T05:57:05;14.93;;;9.20;;
5379;SDS011;2713;42.680;23.310;2023-03-03T05:59:32;10.98;;;8.85;;
5379;SDS011;2713;42.680;23.310;2023-03-03T06:01:58;12.05;;;8.95;;
5379;SDS011;2713;42.680;23.310;2023-03-03T06:04:25;14.40;;;9.55;;
5379;SDS011;2713;42.680;23.310;2023-03-03T06:06:54;13.05;;;8.98;;
5379;SDS011;2713;42.680;23.310;2023-03-03T06:09:21;11.45;;;8.52;;
5379;SDS011;2713;42.680;23.310;2023-03-03T06:11:48;12.30;;;9.18;;
5379;SDS011;2713;42.680;23.310;2023-03-03T06:14:17;12.73;;;9.25;;
5379;SDS011;2713;42.680;23.310;2023-03-03T06:16:44;10.38;;;8.35;;
5379;SDS011;2713;42.680;23.310;2023-03-03T06:19:11;11.38;;;8.95;;
5379;SDS011;2713;42.680;23.310;2023-03-03T06:21:38;11.13;;;8.30;;
5379;SDS011;2713;42.680;23.310;2023-03-03T06:24:07;12.98;;;9.23;;
5379;SDS011;2713;42.680;23.310;2023-03-03T06:26:33;10.57;;;8.35;;
5379;SDS011;2713;42.680;23.310;2023-03-03T06:29:00;10.25;;;7.55;;
5379;SDS011;2713;42.680;23.310;2023-03-03T06:31:27;10.65;;;8.30;;
5379;SDS011;2713;42.680;23.310;2023-03-03T06:33:54;11.65;;;8.65;;
5379;SDS011;2713;42.680;23.310;2023-03-03T06:36:21;12.30;;;8.70;;
5379;SDS011;2713;42.680;23.310;2023-03-03T06:38:47;11.93;;;9.13;;
5379;SDS011;2713;42.680;23.310;2023-03-03T06:41:16;10.65;;;8.00;;
5379;SDS011;2713;42.680;23.310;2023-03-03T06:43:42;11.75;;;8.15;;
5379;SDS011;2713;42.680;23.310;2023-03-03T06:46:09;13.05;;;8.63;;
5379;SDS011;2713;42.680;23.310;2023-03-03T06:48:36;10.75;;;7.90;;
5379;SDS011;2713;42.680;23.310;2023-03-03T06:51:19;14.23;;;8.15;;
5379;SDS011;2713;42.680;23.310;2023-03-03T06:53:51;10.57;;;7.57;;
5379;SDS011;2713;42.680;23.310;2023-03-03T06:56:21;11.13;;;8.75;;
5379;SDS011;2713;42.680;23.310;2023-03-03T06:58:49;11.50;;;8.60;;
5379;SDS011;2713;42.680;23.310;2023-03-03T07:01:19;11.63;;;8.65;;
5379;SDS011;2713;42.680;23.310;2023-03-03T07:03:46;12.90;;;8.50;;
5379;SDS011;2713;42.680;23.310;2023-03-03T07:06:19;12.40;;;8.27;;
5379;SDS011;2713;42.680;23.310;2023-03-03T07:08:48;8.53;;;7.63;;
5379;SDS011;2713;42.680;23.310;2023-03-03T07:11:16;11.97;;;7.57;;
5379;SDS011;2713;42.680;23.310;2023-03-03T07:13:47;10.00;;;8.03;;
5379;SDS011;2713;42.680;23.310;2023-03-03T07:16:16;8.87;;;7.70;;
5379;SDS011;2713;42.680;23.310;2023-03-03T07:18:46;10.40;;;8.03;;
5379;SDS011;2713;42.680;23.310;2023-03-03T07:21:17;9.83;;;7.27;;
5379;SDS011;2713;42.680;23.310;2023-03-03T07:23:45;10.37;;;7.70;;
5379;SDS011;2713;42.680;23.310;2023-03-03T07:26:15;9.47;;;7.20;;
5379;SDS011;2713;42.680;23.310;2023-03-03T07:28:44;10.75;;;7.45;;
5379;SDS011;2713;42.680;23.310;2023-03-03T07:31:28;8.57;;;7.50;;
5379;SDS011;2713;42.680;23.310;2023-03-03T07:33:58;10.05;;;7.32;;
5379;SDS011;2713;42.680;23.310;2023-03-03T07:36:26;8.68;;;6.70;;
5379;SDS011;2713;42.680;23.310;2023-03-03T07:38:56;10.02;;;7.60;;
5379;SDS011;2713;42.680;23.310;2023-03-03T07:41:25;10.95;;;8.13;;
5379;SDS011;2713;42.680;23.310;2023-03-03T07:43:54;11.07;;;7.60;;
5379;SDS011;2713;42.680;23.310;2023-03-03T07:46:30;12.23;;;8.27;;
5379;SDS011;2713;42.680;23.310;2023-03-03T07:49:07;8.80;;;7.90;;
5379;SDS011;2713;42.680;23.310;2023-03-03T07:51:46;11.43;;;8.30;;
5379;SDS011;2713;42.680;23.310;2023-03-03T07:54:19;9.43;;;8.43;;
5379;SDS011;2713;42.680;23.310;2023-03-03T07:56:55;10.55;;;7.32;;
5379;SDS011;2713;42.680;23.310;2023-03-03T07:59:27;9.37;;;7.07;;
5379;SDS011;2713;42.680;23.310;2023-03-03T08:01:54;7.80;;;7.00;;
5379;SDS011;2713;42.680;23.310;2023-03-03T08:04:27;9.17;;;7.47;;
5379;SDS011;2713;42.680;23.310;2023-03-03T08:07:00;7.50;;;6.80;;
5379;SDS011;2713;42.680;23.310;2023-03-03T08:09:38;10.70;;;8.00;;
5379;SDS011;2713;42.680;23.310;2023-03-03T08:15:17;10.20;;;8.27;;
5379;SDS011;2713;42.680;23.310;2023-03-03T08:17:49;9.40;;;8.40;;
5379;SDS011;2713;42.680;23.310;2023-03-03T08:20:36;11.43;;;8.67;;
5379;SDS011;2713;42.680;23.310;2023-03-03T08:23:08;11.60;;;8.70;;
5379;SDS011;2713;42.680;23.310;2023-03-03T08:25:35;8.97;;;8.03;;
5379;SDS011;2713;42.680;23.310;2023-03-03T08:28:02;10.40;;;8.13;;
5379;SDS011;2713;42.680;23.310;2023-03-03T08:30:30;11.20;;;7.97;;
5379;SDS011;2713;42.680;23.310;2023-03-03T08:32:57;10.20;;;8.20;;
5379;SDS011;2713;42.680;23.310;2023-03-03T08:35:24;9.97;;;8.30;;
5379;SDS011;2713;42.680;23.310;2023-03-03T08:37:51;10.50;;;8.80;;
5379;SDS011;2713;42.680;23.310;2023-03-03T08:40:18;12.07;;;10.37;;
5379;SDS011;2713;42.680;23.310;2023-03-03T08:42:45;13.47;;;9.67;;
5379;SDS011;2713;42.680;23.310;2023-03-03T08:45:11;11.17;;;8.73;;
5379;SDS011;2713;42.680;23.310;2023-03-03T08:47:40;11.27;;;8.40;;
5379;SDS011;2713;42.680;23.310;2023-03-03T08:50:07;11.93;;;8.60;;
5379;SDS011;2713;42.680;23.310;2023-03-03T08:52:35;12.43;;;8.93;;
5379;SDS011;2713;42.680;23.310;2023-03-03T08:55:02;12.50;;;8.98;;
5379;SDS011;2713;42.680;23.310;2023-03-03T08:57:29;13.35;;;9.48;;
5379;SDS011;2713;42.680;23.310;2023-03-03T08:59:56;12.27;;;9.60;;
5379;SDS011;2713;42.680;23.310;2023-03-03T09:02:23;13.10;;;9.65;;
5379;SDS011;2713;42.680;23.310;2023-03-03T09:04:51;11.23;;;8.80;;
5379;SDS011;2713;42.680;23.310;2023-03-03T09:07:18;11.85;;;8.82;;
5379;SDS011;2713;42.680;23.310;2023-03-03T09:09:45;10.25;;;8.70;;
5379;SDS011;2713;42.680;23.310;2023-03-03T09:12:14;15.60;;;10.70;;
5379;SDS011;2713;42.680;23.310;2023-03-03T09:14:43;11.90;;;8.63;;
5379;SDS011;2713;42.680;23.310;2023-03-03T09:20:01;12.97;;;9.13;;
5379;SDS011;2713;42.680;23.310;2023-03-03T09:22:46;13.90;;;9.97;;
5379;SDS011;2713;42.680;23.310;2023-03-03T09:25:17;14.60;;;10.70;;
5379;SDS011;2713;42.680;23.310;2023-03-03T09:27:47;12.37;;;8.87;;
5379;SDS011;2713;42.680;23.310;2023-03-03T09:30:26;11.70;;;8.80;;
5379;SDS011;2713;42.680;23.310;2023-03-03T09:33:01;10.97;;;8.67;;
5379;SDS011;2713;42.680;23.310;2023-03-03T09:35:44;9.77;;;7.67;;
5379;SDS011;2713;42.680;23.310;2023-03-03T09:38:16;10.70;;;9.00;;
5379;SDS011;2713;42.680;23.310;2023-03-03T09:41:12;12.97;;;9.63;;
5379;SDS011;2713;42.680;23.310;2023-03-03T09:44:11;13.60;;;10.20;;
5379;SDS011;2713;42.680;23.310;2023-03-03T09:46:51;8.53;;;7.33;;
5379;SDS011;2713;42.680;23.310;2023-03-03T09:49:30;7.97;;;6.93;;
5379;SDS011;2713;42.680;23.310;2023-03-03T09:55:04;9.70;;;7.70;;
5379;SDS011;2713;42.680;23.310;2023-03-03T09:57:48;9.00;;;7.60;;
5379;SDS011;2713;42.680;23.310;2023-03-03T10:00:28;10.57;;;8.23;;
5379;SDS011;2713;42.680;23.310;2023-03-03T10:03:27;9.40;;;7.17;;
5379;SDS011;2713;42.680;23.310;2023-03-03T10:06:08;9.03;;;7.60;;
5379;SDS011;2713;42.680;23.310;2023-03-03T10:08:44;7.67;;;6.73;;
5379;SDS011;2713;42.680;23.310;2023-03-03T10:11:20;9.30;;;7.60;;
5379;SDS011;2713;42.680;23.310;2023-03-03T10:13:59;10.00;;;8.20;;
5379;SDS011;2713;42.680;23.310;2023-03-03T10:55:32;14.60;;;11.17;;
5379;SDS011;2713;42.680;23.310;2023-03-03T10:58:07;13.67;;;9.47;;
5379;SDS011;2713;42.680;23.310;2023-03-03T11:01:02;10.20;;;8.50;;
5379;SDS011;2713;42.680;23.310;2023-03-03T11:06:32;11.53;;;9.03;;
5379;SDS011;2713;42.680;23.310;2023-03-03T11:09:09;24.07;;;18.40;;
5379;SDS011;2713;42.680;23.310;2023-03-03T11:11:44;13.83;;;10.80;;
5379;SDS011;2713;42.680;23.310;2023-03-03T11:14:21;13.13;;;10.60;;
5379;SDS011;2713;42.680;23.310;2023-03-03T11:16:56;14.40;;;10.97;;
5379;SDS011;2713;42.680;23.310;2023-03-03T11:19:39;15.67;;;11.83;;
5379;SDS011;2713;42.680;23.310;2023-03-03T11:22:22;13.50;;;11.20;;
5379;SDS011;2713;42.680;23.310;2023-03-03T11:25:00;15.40;;;11.90;;
5379;SDS011;2713;42.680;23.310;2023-03-03T11:27:46;15.27;;;11.80;;
5379;SDS011;2713;42.680;23.310;2023-03-03T11:30:27;17.63;;;12.23;;
5379;SDS011;2713;42.680;23.310;2023-03-03T11:33:01;14.80;;;11.67;;
5379;SDS011;2713;42.680;23.310;2023-03-03T11:35:34;17.73;;;13.87;;
5379;SDS011;2713;42.680;23.310;2023-03-03T11:41:07;19.83;;;14.20;;
5379;SDS011;2713;42.680;23.310;2023-03-03T11:43:43;18.90;;;15.00;;
5379;SDS011;2713;42.680;23.310;2023-03-03T11:46:15;19.40;;;14.63;;
5379;SDS011;2713;42.680;23.310;2023-03-03T11:48:47;18.87;;;14.97;;
5379;SDS011;2713;42.680;23.310;2023-03-03T11:51:19;22.30;;;15.60;;
5379;SDS011;2713;42.680;23.310;2023-03-03T11:53:54;23.40;;;15.77;;
5379;SDS011;2713;42.680;23.310;2023-03-03T11:56:26;20.87;;;15.23;;
5379;SDS011;2713;42.680;23.310;2023-03-03T11:59:01;16.90;;;13.50;;
5379;SDS011;2713;42.680;23.310;2023-03-03T12:01:40;20.87;;;13.67;;
5379;SDS011;2713;42.680;23.310;2023-03-03T12:04:12;17.27;;;13.90;;
5379;SDS011;2713;42.680;23.310;2023-03-03T12:06:48;18.30;;;14.10;;
5379;SDS011;2713;42.680;23.310;2023-03-03T12:09:30;16.40;;;13.10;;
5379;SDS011;2713;42.680;23.310;2023-03-03T12:12:06;19.37;;;14.90;;
5379;SDS011;2713;42.680;23.310;2023-03-03T12:14:52;17.33;;;13.83;;
5379;SDS011;2713;42.680;23.310;2023-03-03T12:17:39;20.10;;;14.17;;
5379;SDS011;2713;42.680;23.310;2023-03-03T12:20:21;17.97;;;13.63;;
5379;SDS011;2713;42.680;23.310;2023-03-03T12:23:03;15.50;;;12.13;;
5379;SDS011;2713;42.680;23.310;2023-03-03T12:25:42;14.33;;;11.57;;
5379;SDS011;2713;42.680;23.310;2023-03-03T12:28:14;15.07;;;11.73;;
5379;SDS011;2713;42.680;23.310;2023-03-03T12:31:00;16.30;;;10.80;;
5379;SDS011;2713;42.680;23.310;2023-03-03T12:33:38;15.70;;;11.90;;
5379;SDS011;2713;42.680;23.310;2023-03-03T12:36:18;13.17;;;10.73;;
5379;SDS011;2713;42.680;23.310;2023-03-03T12:38:55;15.67;;;11.70;;
5379;SDS011;2713;42.680;23.310;2023-03-03T12:41:29;13.87;;;11.70;;
5379;SDS011;2713;42.680;23.310;2023-03-03T12:44:04;14.77;;;11.00;;
5379;SDS011;2713;42.680;23.310;2023-03-03T12:46:43;14.40;;;11.30;;
5379;SDS011;2713;42.680;23.310;2023-03-03T12:49:12;22.27;;;13.70;;
5379;SDS011;2713;42.680;23.310;2023-03-03T12:51:45;13.80;;;10.30;;
5379;SDS011;2713;42.680;23.310;2023-03-03T12:54:27;13.13;;;10.33;;
5379;SDS011;2713;42.680;23.310;2023-03-03T12:57:09;10.57;;;8.40;;
5379;SDS011;2713;42.680;23.310;2023-03-03T12:59:42;9.53;;;8.23;;
5379;SDS011;2713;42.680;23.310;2023-03-03T13:02:28;10.40;;;8.40;;
5379;SDS011;2713;42.680;23.310;2023-03-03T13:05:08;9.20;;;8.17;;
5379;SDS011;2713;42.680;23.310;2023-03-03T13:07:46;9.93;;;8.00;;
5379;SDS011;2713;42.680;23.310;2023-03-03T13:10:23;9.30;;;8.30;;
5379;SDS011;2713;42.680;23.310;2023-03-03T13:12:55;16.13;;;11.80;;
5379;SDS011;2713;42.680;23.310;2023-03-03T13:15:28;12.63;;;9.20;;
5379;SDS011;2713;42.680;23.310;2023-03-03T13:18:02;9.00;;;7.27;;
5379;SDS011;2713;42.680;23.310;2023-03-03T13:20:48;11.07;;;8.40;;
5379;SDS011;2713;42.680;23.310;2023-03-03T13:23:21;8.97;;;8.03;;
5379;SDS011;2713;42.680;23.310;2023-03-03T13:26:03;8.90;;;7.70;;
5379;SDS011;2713;42.680;23.310;2023-03-03T13:28:37;10.17;;;8.57;;
5379;SDS011;2713;42.680;23.310;2023-03-03T13:31:09;9.90;;;7.40;;
5379;SDS011;2713;42.680;23.310;2023-03-03T13:33:42;10.87;;;8.47;;
5379;SDS011;2713;42.680;23.310;2023-03-03T13:36:15;8.27;;;7.23;;
5379;SDS011;2713;42.680;23.310;2023-03-03T13:38:45;8.90;;;7.27;;
5379;SDS011;2713;42.680;23.310;2023-03-03T13:41:16;8.43;;;7.03;;
5379;SDS011;2713;42.680;23.310;2023-03-03T13:43:50;7.33;;;6.70;;
5379;SDS011;2713;42.680;23.310;2023-03-03T13:46:26;7.60;;;6.73;;
5379;SDS011;2713;42.680;23.310;2023-03-03T13:49:15;8.13;;;7.33;;
5379;SDS011;2713;42.680;23.310;2023-03-03T13:51:57;8.07;;;7.27;;
5379;SDS011;2713;42.680;23.310;2023-03-03T13:57:25;8.23;;;7.40;;
5379;SDS011;2713;42.680;23.310;2023-03-03T14:00:26;9.77;;;8.30;;
5379;SDS011;2713;42.680;23.310;2023-03-03T14:06:20;9.10;;;8.20;;
5379;SDS011;2713;42.680;23.310;2023-03-03T14:08:54;7.60;;;6.83;;
5379;SDS011;2713;42.680;23.310;2023-03-03T14:11:32;8.00;;;7.00;;
5379;SDS011;2713;42.680;23.310;2023-03-03T14:14:04;8.13;;;7.23;;
5379;SDS011;2713;42.680;23.310;2023-03-03T14:16:46;11.60;;;7.90;;
5379;SDS011;2713;42.680;23.310;2023-03-03T14:19:18;8.93;;;7.37;;
5379;SDS011;2713;42.680;23.310;2023-03-03T14:21:55;8.57;;;7.40;;
5379;SDS011;2713;42.680;23.310;2023-03-03T14:24:31;8.17;;;7.37;;
5379;SDS011;2713;42.680;23.310;2023-03-03T14:27:20;16.03;;;13.37;;
5379;SDS011;2713;42.680;23.310;2023-03-03T14:29:50;18.13;;;12.93;;
5379;SDS011;2713;42.680;23.310;2023-03-03T14:32:20;9.30;;;7.93;;
5379;SDS011;2713;42.680;23.310;2023-03-03T14:34:55;7.83;;;7.13;;
5379;SDS011;2713;42.680;23.310;2023-03-03T14:37:25;6.80;;;6.10;;
5379;SDS011;2713;42.680;23.310;2023-03-03T14:40:00;8.13;;;6.23;;
5379;SDS011;2713;42.680;23.310;2023-03-03T14:42:37;6.40;;;5.80;;
5379;SDS011;2713;42.680;23.310;2023-03-03T14:45:17;6.03;;;5.43;;
5379;SDS011;2713;42.680;23.310;2023-03-03T14:47:48;6.50;;;5.70;;
5379;SDS011;2713;42.680;23.310;2023-03-03T14:50:31;6.23;;;5.50;;
5379;SDS011;2713;42.680;23.310;2023-03-03T14:53:09;5.90;;;5.40;;
5379;SDS011;2713;42.680;23.310;2023-03-03T14:55:39;6.07;;;5.53;;
5379;SDS011;2713;42.680;23.310;2023-03-03T14:58:22;6.70;;;6.10;;
5379;SDS011;2713;42.680;23.310;2023-03-03T15:00:58;7.00;;;6.30;;
5379;SDS011;2713;42.680;23.310;2023-03-03T15:03:33;6.77;;;6.13;;
5379;SDS011;2713;42.680;23.310;2023-03-03T15:06:06;7.03;;;6.43;;
5379;SDS011;2713;42.680;23.310;2023-03-03T15:08:38;7.10;;;6.50;;
5379;SDS011;2713;42.680;23.310;2023-03-03T15:11:19;7.23;;;6.53;;
5379;SDS011;2713;42.680;23.310;2023-03-03T15:13:51;6.87;;;6.20;;
5379;SDS011;2713;42.680;23.310;2023-03-03T15:16:19;7.03;;;6.30;;
5379;SDS011;2713;42.680;23.310;2023-03-03T15:21:52;7.07;;;6.40;;
5379;SDS011;2713;42.680;23.310;2023-03-03T15:24:27;7.30;;;6.60;;
5379;SDS011;2713;42.680;23.310;2023-03-03T15:27:05;8.00;;;6.70;;
5379;SDS011;2713;42.680;23.310;2023-03-03T15:29:38;8.00;;;7.17;;
5379;SDS011;2713;42.680;23.310;2023-03-03T15:32:11;7.23;;;6.53;;
5379;SDS011;2713;42.680;23.310;2023-03-03T15:34:46;8.63;;;7.50;;
5379;SDS011;2713;42.680;23.310;2023-03-03T15:37:31;7.20;;;6.50;;
5379;SDS011;2713;42.680;23.310;2023-03-03T15:40:13;8.60;;;7.70;;
5379;SDS011;2713;42.680;23.310;2023-03-03T15:42:47;7.57;;;6.87;;
5379;SDS011;2713;42.680;23.310;2023-03-03T15:45:17;9.60;;;8.60;;
5379;SDS011;2713;42.680;23.310;2023-03-03T15:47:53;9.37;;;8.00;;
5379;SDS011;2713;42.680;23.310;2023-03-03T15:50:33;7.73;;;6.90;;
5379;SDS011;2713;42.680;23.310;2023-03-03T15:53:13;7.90;;;7.10;;
5379;SDS011;2713;42.680;23.310;2023-03-03T15:55:57;7.23;;;6.60;;
5379;SDS011;2713;42.680;23.310;2023-03-03T15:58:43;7.70;;;6.90;;
5379;SDS011;2713;42.680;23.310;2023-03-03T16:01:24;6.97;;;6.37;;
5379;SDS011;2713;42.680;23.310;2023-03-03T16:03:55;7.93;;;7.17;;
5379;SDS011;2713;42.680;23.310;2023-03-03T16:06:31;7.83;;;7.13;;
5379;SDS011;2713;42.680;23.310;2023-03-03T16:09:05;7.37;;;6.70;;
5379;SDS011;2713;42.680;23.310;2023-03-03T16:11:43;8.17;;;6.60;;
5379;SDS011;2713;42.680;23.310;2023-03-03T16:14:30;7.37;;;6.70;;
5379;SDS011;2713;42.680;23.310;2023-03-03T16:17:13;8.00;;;7.27;;
5379;SDS011;2713;42.680;23.310;2023-03-03T16:19:48;7.80;;;7.00;;
5379;SDS011;2713;42.680;23.310;2023-03-03T16:22:30;7.77;;;6.97;;
5379;SDS011;2713;42.680;23.310;2023-03-03T16:28:04;7.10;;;6.50;;
5379;SDS011;2713;42.680;23.310;2023-03-03T16:30:35;6.20;;;5.70;;
5379;SDS011;2713;42.680;23.310;2023-03-03T16:33:13;7.73;;;6.93;;